Terminal Aerodrome Forecast
Issued by NWS

Home | Current Version | Previous Version | Text Only | Print | Product List | Glossary Off
Versions: 1 2 3 4 5 6 7 8 9 10 11 12 13 14 15 16 17 18 19 20

000
FTUS42 KMHX 311100 AAC
TAFPGV
TAF AMD
KPGV 311103Z 3111/0106 00000KT 5SM BR BKN120
     FM311300 00000KT P6SM BKN120
     FM311700 05006KT P6SM SCT040 BKN100
     FM010100 15005KT P6SM SCT250
      AMD LTD TO CLD VIS AND WIND=

USA.gov is the U.S. government's official web portal to all federal, state and local government web resources and services.